aviador You're here:

KGAG Decoded Metar

GAGE in OK, USA
Report Time2018-02-25 14:53:00
UTC Time2018-02-25 15:24:12
Flight Rules vfr VFR
Wind200° at 08 kt
W.Decomp.*RWY 17: 7.4 kt HW 3.0 kt RCW
W.Rank200° ranks 5
Current wind is below 200° avg. (13.0)
Visibility9999 m
Phenomena:N/A
Clouds:N/A
Expected CloudBase > 800 ft AGL from Temp-Dew spread
CeilingNone
Temp01°C (ISA -10)
Dew Point-1°C (87% RH)
AAT-4.0°C
QNH1015 hPa
Density Alt1,040 ft
Elevation2,192 ft
Report Wrong Elevation
Raw Report
KGAG 251453Z AUTO 20008KT 10SM CLR 01/M01 A2997 RMK AO2 SLP163
I3001 T00111011 53005=

Extra information for KGAG:More info

Metar Taf Metar & Taf Last 4 Metars F.Rules Stats Wind Profile Meteogram Temp Stats Airport Information Weather charts Add Link Nearby VenuesMetar ALERT Operation Metar Decoded Social comments

AIRNAV info for KGAG